New Vienna, IA (52065)

1:59 PM CDT on April 27, 2017 (GMT -0500)
Rolling Farm | | Change Station
Active Advisory: Frost Advisory

Elev 1201 ft 42.61 °N, 91.15 °W | Updated 48 seconds ago

Overcast
Overcast
40.5 °F
Feels Like 36 °F
N
6.0
Wind Variable Wind from East

Today
High -- | Low -- °F
--% Chance of Precip.
Yesterday
High -- | Low -- °F
Precip. -- in
Pressure 29.65 in
Visibility 10.0 miles
Clouds Mostly Cloudy 2200 ft
Mostly Cloudy 2800 ft
Overcast 3600 ft
Windchill 36 °F
Dew Point 35 °F
Humidity 81%
Rainfall 0.49 in
Snow Depth Not available.
6:04 AM 8:00 PM
New Moon, 2% visible
METAR KDBQ 271853Z 28019G24KT 10SM BKN022 BKN028 OVC036 04/01 A2962 RMK AO2 SLP038 T00440006
Pressure 29.65 in
Visibility 10.0 miles
Clouds Mostly Cloudy 2200 ft
Mostly Cloudy 2800 ft
Overcast 3600 ft
Windchill 36 °F
Dew Point 35 °F
Humidity 81%
Rainfall 0.49 in
Snow Depth Not available.
6:04 AM 8:00 PM
New Moon, 2% visible
METAR KDBQ 271853Z 28019G24KT 10SM BKN022 BKN028 OVC036 04/01 A2962 RMK AO2 SLP038 T00440006

Get Your Daily Forecast Email!

Thanks for signing up!

Be on the lookout for a verification email in your inbox.

You'll start receiving severe weather alerts in your inbox..

×

10-Day Weather Forecast

Almanac

Astronomy

Apr. 27, 2017 Rise Set
Actual Time
Civil Twilight
Nautical Twilight
Astronomical Twilight
Moon
Length of Visible Light
Length of Day
Tomorrow will be .
, % of the Moon is Illuminated

Today's Extremes

State Highs State Lows

Community

WunderPhotos

WunderBlog® & News

Nearby

Air Quality

  Air Quality AQ Index Pollutant
Not available.

Snow Depth

Station Depth Elevation

Earthquake Activity

City Distance Mag. Time & Date
Minimum magnitude displayed is 2.5.

Coastal Water Temperatures

Place Temperature

Stations

Nearby Weather Stations

Station Location Temp. Windchill Dew Point Humidity Wind Precip. Elev Updated Type
                   

Watches & Warnings

Frost Advisory
Issued: 11:39 AM CDT Apr. 27, 2017 – National Weather Service

... Frost advisory remains in effect from 1 am to 8 am CDT
Friday...

* temperatures... in the middle 30s.

* Timing... 1 am CDT Friday through 8 am CDT Friday.

* Impacts... the frost could damage plants across the advisory
area. Be sure to move vunerable plants inside or cover them
overnight.

Precautionary/preparedness actions...

A frost advisory means that frost is likely. Cover or move
sensitive plants indoors.